Stations météo

réclame
Mon MeteoGroup
Marknesse aws, Pays-Bas (6273): Température de l'air & dewpoint: 18.10.2018 07:00:00 - 24.10.2018 07:00:00 (CEST)Marknesse aws, Pays-Bas (6273): Température de l'air 5cm & Température de l'air -5cm: 18.10.2018 07:00:00 - 24.10.2018 07:00:00 (CEST)Marknesse aws, Pays-Bas (6273): Température de l'air -20cm & Température de l'air -100cm: 18.10.2018 07:00:00 - 24.10.2018 07:00:00 (CEST)Marknesse aws, Pays-Bas (6273): Vitesse du vent & gusts: 18.10.2018 07:00:00 - 24.10.2018 07:00:00 (CEST)Marknesse aws, Pays-Bas (6273): Direction du vent: 18.10.2018 07:00:00 - 24.10.2018 07:00:00 (CEST)Marknesse aws, Pays-Bas (6273): visibility: 18.10.2018 07:00:00 - 24.10.2018 07:00:00 (CEST)Marknesse aws, Pays-Bas (6273): Quantités de précipitations: 18.10.2018 07:00:00 - 24.10.2018 07:00:00 (CEST)
Date & Time tt [°C] td [°C] tt 5cm [°C] tt -5cm [°C] tt -20cm [°C] tt -100cm [°C] ff [km/h] ff [knt] fx [km/h] fx [knt] dd vv [km] rr [mm]
24.10.2018 07:00:00 13,5 11,8 12,9 12,6 12,6 13,9 29 16 43 23 NW 24 0,0
24.10.2018 06:00:00 13,2 12,3 12,9 12,6 12,5 13,9 29 16 47 25 WNW 6 0,0
24.10.2018 05:00:00 13,7 12,5 13,2 12,6 12,5 14,0 25 14 43 23 NW 13 0,0
24.10.2018 04:00:00 13,4 12,9 13,2 12,6 12,5 14,0 29 16 47 25 WNW 4,4 0,2
24.10.2018 03:00:00 13,4 12,9 13,2 12,6 12,5 14,0 25 14 40 21 WNW 3,8 0,2
24.10.2018 02:00:00 13,5 12,6 13,3 12,5 12,4 14,0 29 16 47 25 WNW 2,7 0,2
24.10.2018 01:00:00 14,3 12,1 13,9 12,5 12,4 14,0 32 18 50 27 W 12 0,0
24.10.2018 00:00:00 14,1 12,2 13,7 12,4 12,4 14,0 32 18 47 25 W 4,2 0,0
23.10.2018 23:00:00 14,3 11,9 14,0 12,4 12,3 14,0 25 14 36 19 W 9 0,0
23.10.2018 22:00:00 14,3 11,5 13,9 12,3 12,3 14,0 25 14 43 23 WNW 13 0,0
23.10.2018 21:00:00 14,1 11,3 13,8 12,2 12,3 14,0 29 16 47 25 WNW 12 0,0
23.10.2018 20:00:00 13,8 11,0 13,5 12,2 12,3 14,0 25 14 43 23 WNW 12 0,0
23.10.2018 19:00:00 13,7 10,6 13,4 12,1 12,2 14,0 25 14 47 25 WNW 12 0,0
23.10.2018 18:00:00 13,8 10,1 13,5 12,1 12,2 14,0 29 16 54 29 WNW 12 0,0
23.10.2018 17:00:00 13,6 10,2 13,4 12,1 12,1 14,0 32 18 58 31 WNW 12 0,0
23.10.2018 16:00:00 13,8 9,8 13,6 12,0 12,1 14,0 36 19 54 29 WNW 12 0,0
23.10.2018 15:00:00 13,7 10,0 13,5 11,9 12,1 14,0 32 18 54 29 WNW 11 0,0
23.10.2018 14:00:00 13,7 10,0 13,5 11,8 12,0 14,0 29 16 50 27 WNW 11 0,0
23.10.2018 13:00:00 13,4 10,2 13,2 11,6 12,0 14,0 29 16 54 29 W 11 0,0
23.10.2018 12:00:00 13,2 10,2 12,9 11,5 12,0 14,0 22 12 43 23 W 12 0,0
23.10.2018 11:00:00 12,8 9,7 12,6 11,3 11,9 14,0 25 14 47 25 W 12 0,0
23.10.2018 10:00:00 12,5 9,3 12,2 11,1 11,9 14,0 25 14 40 21 W 12 0,0
23.10.2018 09:00:00 12,3 8,6 11,9 11,0 11,9 14,0 22 12 47 25 W 14 0,0
23.10.2018 08:00:00 12,2 8,5 11,8 10,9 12,0 14,0 22 12 36 19 W 14 0,0
23.10.2018 07:00:00 11,9 8,5 11,5 10,7 12,0 14,0 22 12 40 21 W 15 0,0
23.10.2018 06:00:00 11,4 8,5 11,0 10,6 12,0 14,0 25 14 40 21 W 15 0,0
23.10.2018 05:00:00 11,7 7,6 11,1 10,4 12,1 14,1 25 14 43 23 W 21 0,0
23.10.2018 04:00:00 11,0 7,4 10,3 10,3 12,1 14,1 22 12 36 19 W 22 0,0
23.10.2018 03:00:00 10,2 6,2 9,3 10,2 12,2 14,1 18 10 25 14 W 29 0,0
23.10.2018 02:00:00 9,2 6,0 8,0 10,1 12,3 14,1 14 8 25 14 W 28 0,0
23.10.2018 01:00:00 8,2 5,3 6,2 10,2 12,5 14,1 7 4 18 10 WSW 35 0,0
23.10.2018 00:00:00 7,0 4,4 4,1 10,4 12,6 14,1 7 4 11 6 WSW 27 0,0
22.10.2018 23:00:00 6,0 3,8 3,0 10,6 12,7 14,1 7 4 11 6 WSW 24 0,0
22.10.2018 22:00:00 6,2 3,9 3,6 10,9 12,8 14,1 7 4 11 6 WSW 22 0,0
22.10.2018 21:00:00 6,0 3,9 3,6 11,3 12,8 14,1 7 4 11 6 WSW 24 0,0
22.10.2018 20:00:00 6,9 4,0 4,8 11,7 12,9 14,1 7 4 14 8 W 25 0,0
22.10.2018 19:00:00 9,5 4,4 7,9 12,1 12,9 14,1 11 6 18 10 NW 28 0,0
22.10.2018 18:00:00 11,6 4,4 10,8 12,3 12,9 14,1 11 6 18 10 NW 31 0,0
22.10.2018 17:00:00 12,8 2,3 12,5 12,6 12,8 14,1 14 8 29 16 NNW 35 0,0
22.10.2018 16:00:00 12,7 4,8 12,4 12,8 12,8 14,1 22 12 36 19 NNW 34 0,0
22.10.2018 15:00:00 14,2 4,7 14,5 12,8 12,8 14,1 18 10 36 19 NNW 30 0,0
22.10.2018 14:00:00 13,3 6,1 13,6 12,8 12,7 14,1 25 14 36 19 N 24 0,0
22.10.2018 13:00:00 14,5 6,7 15,5 12,6 12,7 14,1 18 10 32 18 N 26 0,0
22.10.2018 12:00:00 13,8 8,0 14,4 12,4 12,7 14,1 18 10 36 19 N 25 0,0
22.10.2018 11:00:00 13,6 8,5 14,0 12,2 12,8 14,1 18 10 29 16 N 28 0,0
22.10.2018 10:00:00 12,0 8,9 11,3 12,1 12,8 14,1 14 8 22 12 NNW 32 0,0
22.10.2018 09:00:00 11,6 9,8 10,6 12,2 12,8 14,2 11 6 22 12 NNW 28 0,0
22.10.2018 08:00:00 10,6 9,0 9,1 12,4 12,8 14,2 7 4 18 10 NNW 28 0,0
22.10.2018 07:00:00 12,2 9,9 11,6 12,5 12,8 14,2 11 6 18 10 N 28 0,0
22.10.2018 06:00:00 12,1 11,1 11,8 12,6 12,8 14,2 11 6 25 14 N 21 0,0
22.10.2018 05:00:00 12,4 11,6 12,1 12,6 12,8 14,2 18 10 32 18 N 19 0,0
22.10.2018 04:00:00 13,1 12,6 12,9 12,5 12,8 14,2 18 10 32 18 NNW 5 0,1
22.10.2018 03:00:00 12,7 12,3 12,5 12,4 12,8 14,2 7 4 11 6 W 0,6 0,0
22.10.2018 02:00:00 12,7 10,3 12,3 12,4 12,8 14,2 7 4 11 6 WSW 7 0,0
22.10.2018 01:00:00 12,8 10,4 12,5 12,4 12,8 14,2 7 4 11 6 SSW 8 0,0
22.10.2018 00:00:00 12,5 10,4 12,0 12,4 12,9 14,2 7 4 7 4 SSW 8 0,0
21.10.2018 23:00:00 12,1 10,2 11,5 12,4 12,9 14,2 7 4 11 6 SSW 2,9 0,0
21.10.2018 22:00:00 10,9 9,3 9,6 12,4 12,9 14,2 4 2 7 4 SW 7 0,0
21.10.2018 21:00:00 10,8 8,8 9,0 12,8 12,9 14,2 7 4 7 4 SSW 9 0,0
21.10.2018 20:00:00 12,7 9,6 12,1 13,0 12,8 14,2 4 2 18 10 SSW 12 0,0
21.10.2018 19:00:00 14,3 9,7 13,7 13,1 12,8 14,2 11 6 18 10 S 16 0,0
21.10.2018 18:00:00 14,7 9,9 14,3 13,3 12,7 14,2 11 6 18 10 SSW 14 0,0
21.10.2018 17:00:00 15,3 9,4 15,1 13,3 12,6 14,2 11 6 22 12 S 15 0,0
21.10.2018 16:00:00 15,9 9,6 16,4 13,3 12,5 14,3 14 8 22 12 SSW 13 0,0
21.10.2018 15:00:00 15,3 9,4 16,1 13,1 12,4 14,3 14 8 25 14 SSW 13 0,0
21.10.2018 14:00:00 14,7 9,1 15,3 12,8 12,4 14,3 14 8 25 14 SSW 12 0,0
21.10.2018 13:00:00 14,1 8,8 14,7 12,5 12,3 14,3 18 10 29 16 SSW 16 0,0
21.10.2018 12:00:00 13,9 9,4 14,2 12,1 12,3 14,3 18 10 25 14 SSW 12 0,0
21.10.2018 11:00:00 13,0 9,3 13,2 11,8 12,3 14,3 14 8 22 12 SSW 12 0,0
21.10.2018 10:00:00 12,0 9,5 11,5 11,5 12,3 14,3 7 4 14 8 SSW 11 0,0
21.10.2018 09:00:00 10,8 8,6 10,2 11,5 12,3 14,3 4 2 14 8 WSW 11 0,0
21.10.2018 08:00:00 10,9 9,3 10,4 11,6 12,3 14,3 11 6 14 8 SSW 8 0,0
21.10.2018 07:00:00 10,9 9,7 10,6 11,6 12,3 14,3 7 4 11 6 SSW 6 0,0
21.10.2018 06:00:00 10,9 9,6 10,6 11,5 12,3 14,3 7 4 14 8 SSW 6 0,0
21.10.2018 05:00:00 11,4 9,9 10,9 11,5 12,4 14,3 11 6 14 8 S 7 0,0
21.10.2018 04:00:00 10,8 10,2 10,4 11,4 12,4 14,3 7 4 11 6 SSW 4,1 0,0
21.10.2018 03:00:00 10,1 9,7 9,4 11,4 12,4 14,3 7 4 14 8 SSW 3,1 0,0
21.10.2018 02:00:00 10,0 9,5 9,3 11,4 12,5 14,3 7 4 11 6 SSW 3,7 0,0
21.10.2018 01:00:00 9,3 8,9 7,5 11,5 12,5 14,3 7 4 11 6 SSW 3,8 0,0
21.10.2018 00:00:00 9,9 9,2 7,4 11,8 12,5 14,3 4 2 7 4 SSW 7 0,0
20.10.2018 23:00:00 10,5 9,2 8,5 12,2 12,5 14,3 4 2 11 6 SSW 8 0,0
20.10.2018 22:00:00 12,7 10,2 12,3 12,3 12,5 14,4 7 4 11 6 WSW 11 0,0
20.10.2018 21:00:00 13,0 10,5 12,5 12,4 12,4 14,4 7 4 7 4 W 13 0,0
20.10.2018 20:00:00 13,0 10,2 12,5 12,4 12,3 14,4 4 2 7 4 W 14 0,0
20.10.2018 19:00:00 13,2 10,1 12,7 12,5 12,2 14,4 4 2 11 6 W 16 0,0
20.10.2018 18:00:00 14,0 9,9 13,7 12,6 12,1 14,4 7 4 14 8 W 19 0,0
20.10.2018 17:00:00 15,4 9,5 15,9 12,6 12,0 14,4 11 6 25 14 W 19 0,0
20.10.2018 16:00:00 15,6 10,1 16,3 12,4 11,9 14,4 14 8 25 14 W 21 0,0
20.10.2018 15:00:00 14,4 9,7 14,5 12,1 11,8 14,4 7 4 22 12 WSW 20 0,0
20.10.2018 14:00:00 14,3 9,3 14,9 11,7 11,7 14,4 14 8 22 12 W 23 0,0
20.10.2018 13:00:00 14,6 9,4 15,4 11,2 11,6 14,4 14 8 22 12 W 30 0,0
20.10.2018 12:00:00 13,8 9,0 14,7 10,5 11,6 14,4 11 6 14 8 WSW 22 0,0
20.10.2018 11:00:00 11,5 9,0 11,8 9,8 11,6 14,4 11 6 14 8 SW 13 0,0
20.10.2018 10:00:00 8,9 8,0 8,1 9,4 11,7 14,4 11 6 18 10 SSW 10 0,0
20.10.2018 09:00:00 6,1 5,4 4,9 9,3 11,8 14,4 7 4 11 6 SSW 12 0,0
20.10.2018 08:00:00 6,2 5,7 5,3 9,2 11,9 14,4 7 4 11 6 SW 8 0,0
20.10.2018 07:00:00 5,2 4,8 4,8 9,0 12,0 14,4 7 4 11 6 SSW 6 0,0
20.10.2018 06:00:00 2,4 2,0 0,6 9,0 12,1 14,4 0 0 4 2 N 5 0,0
20.10.2018 05:00:00 2,3 2,3 0,1 9,2 12,2 14,4 4 2 4 2 WNW 4,5 0,0
20.10.2018 04:00:00 2,5 2,1 0,1 9,4 12,3 14,4 4 2 7 4 WSW 4,7 0,0
20.10.2018 03:00:00 2,1 2,0 0,0 9,6 12,5 14,4 4 2 4 2 SSW 3,9 0,0
20.10.2018 02:00:00 2,3 2,2 0,1 9,8 12,6 14,4 0 0 4 2 N 4,3 0,0
20.10.2018 01:00:00 2,8 2,8 0,5 10,1 12,7 14,4 4 2 4 2 E 8 0,0
20.10.2018 00:00:00 3,6 3,3 1,0 10,4 12,8 14,4 0 0 4 2 N 10 0,0
19.10.2018 23:00:00 4,6 4,0 1,7 10,8 12,9 14,4 0 0 7 4 N 13 0,0
19.10.2018 22:00:00 6,4 4,9 3,4 11,2 13,0 14,4 4 2 7 4 N 20 0,0
19.10.2018 21:00:00 7,0 5,4 4,2 11,6 13,0 14,4 4 2 7 4 NNE 18 0,0
19.10.2018 20:00:00 7,1 5,1 4,9 12,0 13,0 14,4 4 2 7 4 NE 26 0,0
19.10.2018 19:00:00 10,5 6,9 8,6 12,4 12,9 14,4 4 2 7 4 N 8 0,0
19.10.2018 18:00:00 12,3 6,9 11,4 12,6 12,9 14,4 4 2 7 4 ENE 37 0,0
19.10.2018 17:00:00 13,0 6,4 12,9 12,7 12,8 14,4 4 2 14 8 NE 33 0,0
19.10.2018 16:00:00 13,4 6,3 15,0 12,5 12,7 14,4 7 4 14 8 E 30 0,0
19.10.2018 15:00:00 13,5 6,8 14,9 12,3 12,6 14,4 11 6 18 10 E 25 0,0
19.10.2018 14:00:00 13,0 6,4 14,2 11,8 12,5 14,4 11 6 18 10 E 28 0,0
19.10.2018 13:00:00 12,4 7,2 13,4 11,3 12,5 14,4 11 6 18 10 E 30 0,0
19.10.2018 12:00:00 11,3 7,8 11,7 10,8 12,6 14,4 14 8 18 10 E 24 0,0
19.10.2018 11:00:00 9,0 7,3 9,2 10,4 12,6 14,4 11 6 14 8 ENE 18 0,0
19.10.2018 10:00:00 7,6 6,4 7,5 10,1 12,7 14,4 11 6 14 8 ENE 20 0,0
19.10.2018 09:00:00 5,8 5,2 5,1 9,9 12,9 14,4 7 4 11 6 NE 16 0,0
19.10.2018 08:00:00 4,1 3,9 2,1 9,9 13,0 14,4 7 4 7 4 NNE 14 0,0
19.10.2018 07:00:00 3,4 3,4 0,6 10,0 13,2 14,4 4 2 4 2 N 11 0,0
19.10.2018 06:00:00 2,7 2,7 0,2 10,3 13,3 14,4 4 2 7 4 NE 9 0,0
19.10.2018 05:00:00 3,4 3,3 0,9 10,5 13,5 14,4 7 4 11 6 NNE 9 0,0
19.10.2018 04:00:00 3,6 3,6 1,0 10,7 13,6 14,4 4 2 7 4 NNE 4,7 0,0
19.10.2018 03:00:00 4,2 3,9 1,2 11,0 13,8 14,4 0 0 4 2 N 0,2 0,0
19.10.2018 02:00:00 4,7 4,6 1,6 11,4 13,9 14,4 4 2 11 6 N 7 0,0
19.10.2018 01:00:00 4,9 4,3 2,4 11,8 14,0 14,4 7 4 7 4 NE 11 0,0
19.10.2018 00:00:00 6,0 5,8 3,8 12,2 14,1 14,4 7 4 11 6 NE 17 0,0
18.10.2018 23:00:00 6,6 5,6 4,1 12,5 14,2 14,4 4 2 7 4 NE 19 0,0
18.10.2018 22:00:00 8,1 7,0 5,6 12,9 14,3 14,4 7 4 11 6 NE 24 0,0
18.10.2018 21:00:00 8,8 7,1 6,9 13,2 14,3 14,4 7 4 11 6 NNE 35 0,0
18.10.2018 20:00:00 8,7 6,9 7,1 13,6 14,4 14,4 11 6 11 6 NNE 35 0,0
18.10.2018 19:00:00 10,9 8,0 9,4 14,0 14,3 14,4 7 4 14 8 NE 28 0,0
18.10.2018 18:00:00 13,7 8,6 13,0 14,2 14,3 14,4 14 8 22 12 NE 37 0,0
18.10.2018 17:00:00 14,7 9,5 14,4 14,4 14,3 14,4 18 10 25 14 NNE 30 0,0
18.10.2018 16:00:00 15,8 8,6 16,6 14,3 14,2 14,4 11 6 22 12 ENE 28 0,0
18.10.2018 15:00:00 15,8 8,9 15,6 14,1 14,2 14,4 11 6 25 14 N 11 0,0
18.10.2018 14:00:00 15,3 8,7 15,6 14,0 14,2 14,4 14 8 29 16 NNE 32 0,0
18.10.2018 13:00:00 14,5 9,0 14,8 13,8 14,2 14,4 22 12 32 18 N 31 0,0
18.10.2018 12:00:00 14,1 9,5 14,2 13,7 14,2 14,4 18 10 29 16 N 26 0,0
18.10.2018 11:00:00 14,0 11,3 14,2 13,4 14,2 14,4 14 8 25 14 N 18 0,0
18.10.2018 10:00:00 13,0 11,2 13,2 13,3 14,3 14,4 11 6 22 12 N 17 0,0
18.10.2018 09:00:00 11,9 10,9 11,2 13,3 14,3 14,4 11 6 14 8 N 14 0,0
18.10.2018 08:00:00 11,6 10,9 10,9 13,5 14,4 14,4 11 6 18 10 N 14 0,0
18.10.2018 07:00:00 11,9 11,0 11,2 13,6 14,4 14,4 11 6 18 10 N 14 0,0

tt = Température de l'air
td = dewpoint
tt 5cm = Température de l'air 5cm
tt -5cm = Température de l'air -5cm
tt -20cm = Température de l'air -20cm
tt -100cm = Température de l'air -100cm
ff = Vitesse du vent
fx = gusts
dd = Direction du vent
vv = visibility
rr = Quantités de précipitations

stations d'obs. à proximité